Arkansas City, KS

5:25 PM CST on February 20, 2017 (GMT -0600)
Downtown Arkansas City | | Change Station

Elev 1122 ft 37.06 °N, 97.04 °W | Updated 28 seconds ago

Partly Cloudy
Partly Cloudy
63.2 °F
Feels Like 63.2 °F
N
8.0
Wind Variable Wind from SSW

Today
High -- | Low -- °F
--% Chance of Precip.
Yesterday
High -- | Low -- °F
Precip. -- in
Pressure 29.87 in
Visibility 10.0 miles
Clouds Few 2100 ft
Scattered Clouds 2600 ft
Dew Point 56 °F
Humidity 78%
Rainfall 0.46 in
Snow Depth Not available.
7:10 AM 6:13 PM
Waning Crescent, 30% visible
METAR KWLD 202254Z AUTO 19009KT 10SM FEW021 SCT026 17/12 A2988 RMK AO2 SLP114 T01670122
Pressure 29.87 in
Visibility 10.0 miles
Clouds Few 2100 ft
Scattered Clouds 2600 ft
Dew Point 56 °F
Humidity 78%
Rainfall 0.46 in
Snow Depth Not available.
7:10 AM 6:13 PM
Waning Crescent, 30% visible
METAR KWLD 202254Z AUTO 19009KT 10SM FEW021 SCT026 17/12 A2988 RMK AO2 SLP114 T01670122

Get Your Daily Forecast Email!

Thanks for signing up!

Be on the lookout for a verification email in your inbox.

You'll start receiving the daily forecast at 8 AM.

×

10-Day Weather Forecast

Almanac

Astronomy

Feb. 20, 2017 Rise Set
Actual Time
Civil Twilight
Nautical Twilight
Astronomical Twilight
Moon
Length of Visible Light
Length of Day
Tomorrow will be .
, % of the Moon is Illuminated

Today's Extremes

State Highs State Lows

Community

WunderPhotos

Upload Photos

1,962,540 photos uploaded!

WunderBlog® & News

Nearby

Air Quality

  Air Quality AQ Index Pollutant
Not available.

Snow Depth

Station Depth Elevation

Earthquake Activity

City Distance Mag. Time & Date
Minimum magnitude displayed is 2.5.

Coastal Water Temperatures

Place Temperature

Stations

Nearby Weather Stations

Station Location Temp. Windchill Dew Point Humidity Wind Precip. Elev Updated Type
                   

Watches & Warnings

There are currently no watches in effect.